Time;durP1;ratioP1;P1;durP2;ratioP2;P2;SDS_P1;SDS_P2;PMS_P1;PMS_P2;Temp;Humidity;BMP_temperature;BMP_pressure;BME280_temperature;BME280_humidity;BME280_pressure;Samples;Min_cycle;Max_cycle;Signal;HPM_P1;HPM_P2
2020/12/03 00:00:45;;;;;;;15.65;2.95;;;7.80;96.10;;;;;;5049747;28;20040;-82
2020/12/03 00:03:17;;;;;;;10.80;2.95;;;7.70;96.20;;;;;;5066596;28;20505;-81
2020/12/03 00:05:44;;;;;;;12.65;2.88;;;7.70;96.10;;;;;;5067401;28;20042;-66
2020/12/03 00:08:11;;;;;;;12.43;3.50;;;7.70;96.20;;;;;;5067334;28;20108;-80
2020/12/03 00:10:38;;;;;;;16.73;2.05;;;7.70;96.20;;;;;;5066389;28;20387;-80
2020/12/03 00:13:23;;;;;;;14.55;2.70;;;7.60;96.20;;;;;;5067800;28;20024;-81
2020/12/03 00:15:56;;;;;;;12.48;2.60;;;7.60;96.30;;;;;;5066811;28;20028;-81
2020/12/03 00:18:22;;;;;;;16.85;3.15;;;7.60;96.30;;;;;;5066096;28;20032;-80
2020/12/03 00:20:49;;;;;;;9.30;2.25;;;7.60;96.40;;;;;;5065902;28;20028;-81
2020/12/03 00:23:15;;;;;;;8.45;2.08;;;7.60;96.40;;;;;;5066325;28;20500;-83
2020/12/03 00:25:41;;;;;;;5.88;1.85;;;7.60;96.30;;;;;;5065686;28;20463;-82
2020/12/03 00:28:07;;;;;;;6.93;1.73;;;7.60;96.20;;;;;;5049220;28;20056;-83
2020/12/03 00:30:33;;;;;;;8.00;2.15;;;7.60;96.30;;;;;;5065731;28;20059;-81
2020/12/03 00:32:58;;;;;;;8.20;2.30;;;7.60;96.20;;;;;;5049176;28;20021;-81
2020/12/03 00:35:25;;;;;;;6.18;1.60;;;7.60;96.20;;;;;;5052883;28;20036;-83
2020/12/03 00:37:51;;;;;;;10.07;2.78;;;7.60;96.30;;;;;;5070950;28;20028;-81
2020/12/03 00:40:18;;;;;;;11.50;2.00;;;7.60;96.20;;;;;;5069616;28;20360;-81
2020/12/03 00:42:44;;;;;;;7.30;1.75;;;7.60;96.10;;;;;;5053055;28;20031;-84
2020/12/03 00:45:11;;;;;;;8.00;1.60;;;7.60;96.10;;;;;;5069624;28;20151;-82
2020/12/03 00:47:40;;;;;;;9.90;2.45;;;7.50;96.10;;;;;;5053011;28;20044;-82
2020/12/03 00:50:12;;;;;;;9.20;1.95;;;7.50;96.00;;;;;;5070752;28;20051;-82
2020/12/03 00:52:38;;;;;;;7.63;1.75;;;7.60;96.00;;;;;;5070839;28;20484;-81
2020/12/03 00:55:05;;;;;;;7.85;1.50;;;7.50;95.90;;;;;;5071133;28;20046;-82
2020/12/03 00:57:30;;;;;;;3.33;0.90;;;7.50;95.80;;;;;;5069384;28;20463;-81
2020/12/03 00:59:56;;;;;;;11.23;1.90;;;7.50;95.90;;;;;;5052629;28;20086;-81
2020/12/03 01:02:22;;;;;;;5.32;1.65;;;7.50;95.90;;;;;;5052641;28;20400;-82
2020/12/03 01:04:48;;;;;;;12.40;1.92;;;7.50;95.90;;;;;;5036184;28;20119;-83
2020/12/03 01:07:13;;;;;;;8.90;1.58;;;7.50;95.90;;;;;;5070474;28;20109;-83
2020/12/03 01:09:42;;;;;;;6.75;1.20;;;7.50;95.90;;;;;;5070550;28;20588;-84
2020/12/03 01:12:09;;;;;;;9.82;1.75;;;7.50;95.90;;;;;;5070485;28;20140;-81
2020/12/03 01:14:36;;;;;;;11.35;1.52;;;7.50;95.90;;;;;;5070284;28;20032;-83
2020/12/03 01:17:10;;;;;;;5.95;1.27;;;7.50;95.90;;;;;;5052486;28;20391;-83
2020/12/03 01:19:37;;;;;;;8.35;1.75;;;7.50;95.80;;;;;;5068947;28;20036;-80
2020/12/03 01:22:02;;;;;;;12.70;2.17;;;7.50;95.90;;;;;;5052157;28;20039;-82
2020/12/03 01:24:28;;;;;;;9.43;1.75;;;7.50;95.90;;;;;;5052094;28;20037;-82
2020/12/03 01:26:54;;;;;;;13.02;1.95;;;7.50;95.90;;;;;;5068594;28;20053;-82
2020/12/03 01:29:21;;;;;;;6.28;1.33;;;7.40;95.80;;;;;;5035531;28;20021;-81
2020/12/03 01:31:47;;;;;;;10.20;1.60;;;7.40;95.80;;;;;;5069999;28;20025;-84
2020/12/03 01:34:13;;;;;;;5.28;1.83;;;7.40;95.80;;;;;;5051934;28;20028;-81
2020/12/03 01:36:39;;;;;;;9.05;1.52;;;7.40;95.80;;;;;;5068634;28;20032;-84
2020/12/03 01:39:06;;;;;;;7.35;1.85;;;7.40;95.80;;;;;;5068552;28;20029;-82
2020/12/03 01:41:32;;;;;;;9.55;1.75;;;7.50;95.80;;;;;;5068433;28;20026;-81
2020/12/03 01:43:58;;;;;;;10.63;2.00;;;7.50;95.80;;;;;;5068356;28;20033;-82
2020/12/03 01:46:24;;;;;;;4.97;1.15;;;7.40;95.70;;;;;;5034426;28;20039;-84
2020/12/03 01:48:53;;;;;;;6.38;1.38;;;7.40;95.70;;;;;;5051908;28;20031;-81
2020/12/03 01:51:23;;;;;;;;;;;7.40;95.80;;;;;;5070205;28;20036;-82
2020/12/03 01:53:51;;;;;;;6.22;1.20;;;7.40;95.80;;;;;;5068463;28;19905;-84
2020/12/03 01:56:46;;;;;;;11.98;1.20;;;7.40;95.70;;;;;;5069595;28;20103;-82
2020/12/03 01:59:13;;;;;;;7.13;1.40;;;7.30;95.70;;;;;;5069667;28;20054;-80
2020/12/03 02:01:39;;;;;;;7.90;1.05;;;7.30;95.70;;;;;;5068058;28;20020;-83
2020/12/03 02:04:05;;;;;;;7.35;1.13;;;7.20;95.80;;;;;;5051646;28;20062;-82
2020/12/03 02:06:39;;;;;;;5.20;1.02;;;7.20;95.90;;;;;;5068187;28;20050;-81
2020/12/03 02:09:08;;;;;;;5.60;0.88;;;7.20;96.00;;;;;;5069448;28;20024;-83
2020/12/03 02:11:34;;;;;;;2.23;0.73;;;7.10;96.00;;;;;;5067900;28;20036;-81
2020/12/03 02:14:06;;;;;;;4.45;0.80;;;7.10;96.10;;;;;;5069664;28;20112;-83
2020/12/03 02:16:38;;;;;;;7.47;1.70;;;7.10;96.10;;;;;;5069546;28;20487;-81
2020/12/03 02:19:20;;;;;;;7.18;1.65;;;7.10;96.10;;;;;;5067891;28;20471;-82
2020/12/03 02:21:53;;;;;;;6.47;1.25;;;7.10;96.20;;;;;;5069124;28;20024;-83
2020/12/03 02:24:20;;;;;;;3.85;1.52;;;7.10;96.30;;;;;;5069003;28;20142;-80
2020/12/03 02:26:48;;;;;;;5.65;1.10;;;7.10;96.30;;;;;;5067633;28;20052;-80
2020/12/03 02:29:17;;;;;;;3.38;0.95;;;7.00;96.30;;;;;;5067755;28;20035;-81
2020/12/03 02:31:43;;;;;;;6.13;1.10;;;7.00;96.40;;;;;;5068749;28;20071;-83
2020/12/03 02:34:08;;;;;;;3.83;2.28;;;7.00;96.50;;;;;;5067711;28;20035;-80
2020/12/03 02:36:34;;;;;;;7.40;0.95;;;7.00;96.50;;;;;;5068759;28;20035;-82
2020/12/03 02:38:59;;;;;;;4.68;1.55;;;7.00;96.50;;;;;;5034370;28;20070;-80
2020/12/03 02:41:25;;;;;;;7.70;1.40;;;6.90;96.50;;;;;;5067368;28;20029;-83
2020/12/03 02:43:51;;;;;;;7.30;1.40;;;6.90;96.50;;;;;;5067284;28;20478;-81
2020/12/03 02:46:16;;;;;;;8.63;1.63;;;6.90;96.60;;;;;;5067168;28;20032;-80
2020/12/03 02:48:42;;;;;;;5.40;0.90;;;6.90;96.60;;;;;;5050706;28;20036;-81
2020/12/03 02:51:08;;;;;;;4.63;0.93;;;6.80;96.60;;;;;;5050749;28;20038;-80
2020/12/03 02:53:33;;;;;;;4.57;1.10;;;6.80;96.70;;;;;;5034083;28;20494;-79
2020/12/03 02:55:59;;;;;;;9.40;1.67;;;6.80;96.70;;;;;;5067018;28;20082;-81
2020/12/03 02:58:25;;;;;;;11.05;1.60;;;6.80;96.80;;;;;;5068935;28;20028;-80
2020/12/03 03:00:50;;;;;;;6.38;1.00;;;6.80;96.80;;;;;;5050437;28;20033;-81
2020/12/03 03:03:16;;;;;;;3.55;1.10;;;6.80;96.80;;;;;;5050540;28;20029;-82
2020/12/03 03:05:41;;;;;;;4.53;0.52;;;6.80;96.80;;;;;;5068352;28;20033;-82
2020/12/03 03:08:07;;;;;;;4.75;1.05;;;6.80;96.80;;;;;;5050545;28;20028;-81
2020/12/03 03:10:33;;;;;;;3.83;0.88;;;6.80;96.80;;;;;;5050350;28;20499;-81
2020/12/03 03:12:58;;;;;;;4.00;0.75;;;6.80;96.80;;;;;;5067055;28;20024;-82
2020/12/03 03:15:24;;;;;;;3.97;1.08;;;6.80;96.90;;;;;;5067110;28;20386;-83
2020/12/03 03:17:50;;;;;;;5.68;1.10;;;6.80;96.90;;;;;;5066975;28;20043;-82
2020/12/03 03:20:16;;;;;;;6.68;1.60;;;6.80;97.00;;;;;;5066858;28;20029;-79
2020/12/03 03:22:42;;;;;;;2.78;1.00;;;6.80;97.00;;;;;;5033732;28;20382;-82
2020/12/03 03:25:08;;;;;;;4.22;0.90;;;6.80;97.00;;;;;;5033330;28;20052;-80
2020/12/03 03:27:35;;;;;;;3.00;0.88;;;6.80;97.00;;;;;;5050430;28;20494;-80
2020/12/03 03:30:03;;;;;;;4.43;0.80;;;6.80;97.00;;;;;;5050079;28;20051;-82
2020/12/03 03:32:28;;;;;;;4.50;1.08;;;6.80;97.00;;;;;;5068131;28;20111;-82
2020/12/03 03:34:54;;;;;;;7.25;1.13;;;6.90;97.00;;;;;;5049847;28;20119;-82
2020/12/03 03:37:20;;;;;;;7.68;1.15;;;6.80;97.00;;;;;;5033414;28;20032;-80
2020/12/03 03:39:46;;;;;;;5.07;0.98;;;6.80;97.00;;;;;;5066817;28;20029;-80
2020/12/03 03:42:11;;;;;;;4.50;0.85;;;6.80;97.00;;;;;;5050313;28;20086;-80
2020/12/03 03:44:37;;;;;;;6.38;1.35;;;6.80;97.10;;;;;;5050168;28;20035;-82
2020/12/03 03:47:03;;;;;;;7.90;1.50;;;6.80;97.10;;;;;;5033219;28;20364;-82
2020/12/03 03:49:29;;;;;;;4.40;1.13;;;6.80;97.10;;;;;;5049857;28;20029;-81
2020/12/03 03:51:54;;;;;;;5.80;0.90;;;6.80;97.10;;;;;;5067755;28;20024;-80
2020/12/03 03:54:20;;;;;;;7.53;0.95;;;6.80;97.10;;;;;;5066570;28;20060;-80
2020/12/03 03:56:46;;;;;;;9.05;0.85;;;6.80;97.10;;;;;;5033282;28;20406;-79
2020/12/03 03:59:11;;;;;;;3.28;1.02;;;6.80;97.10;;;;;;5049785;28;20035;-82
2020/12/03 04:01:37;;;;;;;4.05;0.80;;;6.80;97.10;;;;;;5066528;28;20032;-83
2020/12/03 04:04:03;;;;;;;4.40;1.23;;;6.80;97.10;;;;;;5066140;28;20032;-82
2020/12/03 04:06:28;;;;;;;4.03;0.75;;;6.70;97.10;;;;;;5067514;28;20036;-81
2020/12/03 04:08:54;;;;;;;7.35;0.70;;;6.70;97.10;;;;;;5051304;28;20036;-82
2020/12/03 04:11:20;;;;;;;3.60;0.80;;;6.70;97.10;;;;;;5070289;28;20021;-79
2020/12/03 04:13:45;;;;;;;3.90;0.68;;;6.70;97.10;;;;;;5053904;28;20021;-79
2020/12/03 04:16:11;;;;;;;2.00;0.52;;;6.70;97.10;;;;;;5053710;28;20040;-82
2020/12/03 04:18:38;;;;;;;2.95;0.60;;;6.70;97.00;;;;;;5071668;28;20055;-81
2020/12/03 04:21:06;;;;;;;5.10;0.63;;;6.70;96.90;;;;;;5070139;28;20052;-80
2020/12/03 04:23:32;;;;;;;2.92;0.40;;;6.60;96.90;;;;;;5070162;28;20395;-80
2020/12/03 04:25:58;;;;;;;4.88;0.47;;;6.60;96.90;;;;;;5053343;28;20131;-82
2020/12/03 04:28:24;;;;;;;4.68;0.70;;;6.50;96.90;;;;;;5070186;28;20123;-80
2020/12/03 04:30:49;;;;;;;5.55;0.70;;;6.50;96.90;;;;;;5053213;28;20031;-80
2020/12/03 04:33:15;;;;;;;1.30;0.40;;;6.50;97.00;;;;;;5071529;28;20069;-82
2020/12/03 04:35:41;;;;;;;2.28;0.63;;;6.50;97.00;;;;;;5069791;28;20383;-80
2020/12/03 04:38:09;;;;;;;5.00;0.80;;;6.40;96.90;;;;;;5053292;28;20025;-82
2020/12/03 04:40:37;;;;;;;3.63;0.60;;;6.50;97.00;;;;;;5070958;28;20024;-81
2020/12/03 04:43:28;;;;;;;1.70;0.60;;;6.50;97.00;;;;;;5070963;28;20024;-81
2020/12/03 04:46:26;;;;;;;2.75;0.50;;;6.50;96.90;;;;;;5071173;28;20024;-81
2020/12/03 04:49:30;;;;;;;2.47;0.40;;;6.50;96.90;;;;;;5069142;28;20032;-80
2020/12/03 04:52:05;;;;;;;3.22;0.68;;;6.50;96.90;;;;;;5062011;28;20499;-81
2020/12/03 04:54:52;;;;;;;3.95;0.50;;;6.40;96.80;;;;;;5069442;28;20029;-81
2020/12/03 04:57:46;;;;;;;2.72;0.52;;;6.50;96.90;;;;;;5070795;28;20031;-81
2020/12/03 05:00:18;;;;;;;2.88;0.75;;;6.40;96.90;;;;;;5069258;28;20028;-83
2020/12/03 05:03:09;;;;;;;2.05;0.63;;;6.50;96.90;;;;;;5069311;28;20031;-80
2020/12/03 05:05:58;;;;;;;1.10;0.38;;;6.40;96.80;;;;;;5069471;28;20029;-80
2020/12/03 05:08:37;;;;;;;2.47;0.63;;;6.40;96.80;;;;;;5069423;28;20101;-81
2020/12/03 05:11:13;;;;;;;5.03;0.60;;;6.40;96.90;;;;;;5069121;28;20101;-80
2020/12/03 05:13:46;;;;;;;1.38;0.50;;;6.40;96.80;;;;;;5069339;28;20028;-81
2020/12/03 05:16:45;;;;;;;2.78;0.77;;;6.40;96.80;;;;;;5069122;28;20031;-83
2020/12/03 05:19:39;;;;;;;1.52;0.47;;;6.40;96.90;;;;;;5068711;28;20032;-81
2020/12/03 05:22:31;;;;;;;4.72;0.68;;;6.40;96.90;;;;;;5060561;28;20036;-82
2020/12/03 05:24:57;;;;;;;5.05;0.73;;;6.40;96.90;;;;;;5067604;28;20041;-83
2020/12/03 05:27:29;;;;;;;2.58;0.68;;;6.40;96.90;;;;;;5068895;28;20494;-80
2020/12/03 05:29:58;;;;;;;3.08;0.80;;;6.40;96.90;;;;;;5070249;28;20028;-81
2020/12/03 05:32:24;;;;;;;5.20;0.90;;;6.40;96.90;;;;;;5070150;28;20095;-82
2020/12/03 05:34:50;;;;;;;0.80;0.52;;;6.40;97.00;;;;;;5070126;28;20123;-81
2020/12/03 05:37:17;;;;;;;0.98;0.40;;;6.40;97.00;;;;;;5068527;28;20060;-81
2020/12/03 05:39:48;;;;;;;3.17;0.60;;;6.40;97.00;;;;;;5068604;28;20436;-81
2020/12/03 05:42:21;;;;;;;5.07;1.00;;;6.40;97.00;;;;;;5069988;28;20021;-81
2020/12/03 05:44:54;;;;;;;5.63;1.38;;;6.50;97.00;;;;;;5068628;28;20158;-81
2020/12/03 05:47:32;;;;;;;2.65;0.73;;;6.40;97.00;;;;;;5069892;28;20479;-81
2020/12/03 05:50:02;;;;;;;1.98;0.52;;;6.40;97.00;;;;;;5069828;28;20059;-80
2020/12/03 05:52:28;;;;;;;3.05;0.50;;;6.40;97.00;;;;;;5068634;28;20395;-81
2020/12/03 05:54:59;;;;;;;2.97;0.63;;;6.40;96.90;;;;;;5068342;28;20047;-81
2020/12/03 05:57:40;;;;;;;2.67;0.52;;;6.50;97.00;;;;;;5068477;28;20360;-81
2020/12/03 06:00:14;;;;;;;1.52;0.60;;;6.40;96.90;;;;;;5069644;28;20016;-80
2020/12/03 06:03:03;;;;;;;2.38;0.47;;;6.40;97.00;;;;;;5068145;28;20020;-84
2020/12/03 06:05:56;;;;;;;1.53;0.83;;;6.40;97.00;;;;;;5062800;28;20042;-81
2020/12/03 06:09:02;;;;;;;2.90;0.50;;;6.40;97.00;;;;;;5068034;28;20111;-80
2020/12/03 06:11:42;;;;;;;3.15;0.90;;;6.40;96.80;;;;;;5069393;28;20095;-83
2020/12/03 06:14:38;;;;;;;1.55;0.50;;;6.40;96.80;;;;;;5067920;28;20414;-82
2020/12/03 06:17:29;;;;;;;0.75;0.40;;;6.40;97.00;;;;;;5069309;28;20375;-80
2020/12/03 06:20:06;;;;;;;0.55;0.30;;;6.40;96.90;;;;;;5067761;28;20024;-81
2020/12/03 06:23:08;;;;;;;1.58;0.50;;;6.30;96.80;;;;;;5067976;28;20173;-80
2020/12/03 06:25:39;;;;;;;1.17;0.35;;;6.30;96.80;;;;;;5067034;28;20442;-80
2020/12/03 06:28:25;;;;;;;1.45;0.40;;;6.30;96.80;;;;;;5067593;28;20494;-80
2020/12/03 06:31:17;;;;;;;2.10;0.70;;;6.30;96.90;;;;;;5068627;28;20096;-82
2020/12/03 06:33:51;;;;;;;2.03;0.60;;;6.30;96.90;;;;;;5067718;28;20017;-81
2020/12/03 06:36:26;;;;;;;2.58;0.40;;;6.30;97.00;;;;;;5068821;28;20444;-81
2020/12/03 06:39:17;;;;;;;2.75;0.60;;;6.30;96.80;;;;;;5067544;28;20029;-81
2020/12/03 06:41:49;;;;;;;0.70;0.43;;;6.20;96.90;;;;;;5067315;28;20106;-75
2020/12/03 06:44:30;;;;;;;3.22;0.68;;;6.20;96.90;;;;;;5067607;28;20036;-79
2020/12/03 06:47:08;;;;;;;1.05;0.70;;;6.10;96.90;;;;;;5067341;28;20024;-81
2020/12/03 06:49:43;;;;;;;1.83;0.70;;;6.10;96.90;;;;;;5067298;28;20021;-82
2020/12/03 06:52:30;;;;;;;4.65;0.52;;;6.10;97.00;;;;;;5067133;28;20036;-80
2020/12/03 06:55:15;;;;;;;8.27;1.02;;;6.10;97.00;;;;;;5067028;28;20031;-81
2020/12/03 06:58:13;;;;;;;2.50;0.80;;;6.10;97.00;;;;;;5066785;28;20024;-80
2020/12/03 07:01:04;;;;;;;1.50;0.73;;;6.20;97.00;;;;;;5068071;28;20383;-83
2020/12/03 07:03:42;;;;;;;1.40;0.90;;;6.20;97.00;;;;;;5067094;28;20119;-82
2020/12/03 07:06:40;;;;;;;3.33;0.93;;;6.20;96.90;;;;;;5066734;28;20049;-80
2020/12/03 07:09:25;;;;;;;1.67;0.40;;;6.20;97.00;;;;;;5068068;28;20025;-81
2020/12/03 07:12:21;;;;;;;1.08;0.52;;;6.20;96.90;;;;;;5066591;28;20391;-81
2020/12/03 07:15:41;;;;;;;2.50;0.88;;;6.20;96.90;;;;;;5066622;28;20060;-80
2020/12/03 07:18:35;;;;;;;3.17;1.58;;;6.20;97.00;;;;;;5028757;28;20029;-82
2020/12/03 07:21:25;;;;;;;2.90;0.82;;;6.20;97.10;;;;;;5065962;28;20047;-81
2020/12/03 07:24:03;;;;;;;5.10;1.52;;;6.20;97.00;;;;;;5066691;28;20077;-84
2020/12/03 07:27:06;;;;;;;4.10;0.88;;;6.20;97.00;;;;;;5066319;28;20380;-82
2020/12/03 07:29:51;;;;;;;1.95;1.00;;;6.30;97.10;;;;;;5067749;28;20055;-81
2020/12/03 07:33:02;;;;;;;1.88;0.90;;;6.30;97.00;;;;;;5066815;28;20074;-82
2020/12/03 07:36:02;;;;;;;4.00;1.52;;;6.30;97.10;;;;;;5066473;28;20235;-82
2020/12/03 07:38:53;;;;;;;5.50;1.98;;;6.40;97.00;;;;;;5046925;28;20085;-75
2020/12/03 07:41:21;;;;;;;1.48;1.35;;;6.40;97.00;;;;;;5067877;28;20098;-81
2020/12/03 07:43:47;;;;;;;3.15;1.05;;;6.40;97.00;;;;;;5067083;28;20048;-81
2020/12/03 07:46:28;;;;;;;5.05;1.08;;;6.40;97.00;;;;;;5049546;28;20570;-83
2020/12/03 07:48:54;;;;;;;2.67;0.88;;;6.40;97.00;;;;;;5066153;28;20025;-84
2020/12/03 07:51:20;;;;;;;1.95;0.68;;;6.50;97.00;;;;;;5067903;28;20021;-81
2020/12/03 07:53:46;;;;;;;8.80;4.20;;;6.40;96.90;;;;;;5067621;28;20021;-82
2020/12/03 07:56:27;;;;;;;3.95;2.22;;;6.50;96.90;;;;;;5049633;28;20104;-82
2020/12/03 07:58:54;;;;;;;1.17;0.90;;;6.40;97.00;;;;;;5066212;28;20311;-82
2020/12/03 08:01:26;;;;;;;1.75;0.85;;;6.40;96.90;;;;;;5066086;28;20039;-82
2020/12/03 08:03:53;;;;;;;4.95;1.95;;;6.50;97.00;;;;;;5066173;28;20162;-81
2020/12/03 08:06:26;;;;;;;2.42;0.95;;;6.40;96.90;;;;;;5067645;28;20028;-81
2020/12/03 08:09:01;;;;;;;2.28;1.27;;;6.40;97.00;;;;;;5067331;28;20032;-82
2020/12/03 08:11:57;;;;;;;2.58;0.98;;;6.40;97.00;;;;;;5065890;28;20028;-82
2020/12/03 08:14:43;;;;;;;2.90;1.08;;;6.50;97.00;;;;;;5067368;28;20059;-83
2020/12/03 08:17:17;;;;;;;2.78;0.80;;;6.40;97.00;;;;;;5065924;28;20031;-81
2020/12/03 08:20:14;;;;;;;2.85;1.90;;;6.50;97.00;;;;;;5066388;28;20025;-82
2020/12/03 08:22:45;;;;;;;2.20;1.15;;;6.60;97.10;;;;;;5066859;28;20060;-81
2020/12/03 08:25:17;;;;;;;2.53;1.02;;;6.60;97.00;;;;;;5066927;28;20431;-81
2020/12/03 08:27:48;;;;;;;2.70;1.15;;;6.60;97.00;;;;;;5066050;28;20119;-82
2020/12/03 08:33:05;;;;;;;2.38;0.90;;;6.70;97.00;;;;;;5067313;28;20024;-81
2020/12/03 08:35:31;;;;;;;3.53;1.30;;;6.70;97.00;;;;;;5065464;28;20034;-81
2020/12/03 08:38:00;;;;;;;1.90;0.95;;;6.80;97.00;;;;;;5065695;28;20028;-82
2020/12/03 08:40:28;;;;;;;2.13;1.10;;;6.80;97.00;;;;;;5049584;28;20056;-81
2020/12/03 08:42:55;;;;;;;2.72;1.20;;;6.80;97.00;;;;;;5049311;28;20042;-83
2020/12/03 08:45:20;;;;;;;6.68;1.85;;;6.90;96.90;;;;;;5065527;28;20060;-83
2020/12/03 08:47:51;;;;;;;2.88;0.88;;;6.90;97.00;;;;;;5048909;28;20407;-83
2020/12/03 08:50:17;;;;;;;1.67;1.00;;;6.90;96.90;;;;;;5065696;28;20038;-82
2020/12/03 08:52:43;;;;;;;3.05;1.13;;;6.90;96.80;;;;;;5067033;28;20101;-82
2020/12/03 08:55:10;;;;;;;3.05;1.30;;;6.90;96.80;;;;;;5067006;28;20157;-84
2020/12/03 08:57:38;;;;;;;2.33;0.93;;;6.90;97.00;;;;;;5068937;28;20028;-71
2020/12/03 09:00:07;;;;;;;2.28;1.02;;;7.00;97.10;;;;;;5068940;28;20062;-80
2020/12/03 09:02:33;;;;;;;2.20;1.10;;;7.00;96.90;;;;;;5069157;28;20479;-83
2020/12/03 09:05:00;;;;;;;3.53;1.88;;;7.00;96.90;;;;;;5070318;28;20544;-82
2020/12/03 09:07:47;;;;;;;3.97;0.95;;;7.10;97.00;;;;;;5035656;28;20336;-80
2020/12/03 09:10:14;;;;;;;3.25;1.33;;;7.00;96.80;;;;;;5070202;28;20021;-82
2020/12/03 09:12:48;;;;;;;2.80;1.52;;;7.00;96.80;;;;;;5068652;28;20032;-82
2020/12/03 09:15:17;;;;;;;2.72;1.52;;;7.00;96.70;;;;;;5068115;28;20021;-82
2020/12/03 09:17:48;;;;;;;5.55;2.40;;;6.90;96.70;;;;;;5070151;28;20024;-83
2020/12/03 09:20:14;;;;;;;3.15;1.98;;;6.90;96.80;;;;;;5068305;28;20542;-80
2020/12/03 09:22:41;;;;;;;4.78;2.40;;;6.90;96.90;;;;;;5052157;28;20040;-81
2020/12/03 09:25:08;;;;;;;4.82;2.25;;;6.90;96.90;;;;;;5068496;28;20484;-82
2020/12/03 09:27:39;;;;;;;4.72;2.33;;;6.90;96.80;;;;;;5068779;28;20048;-81
2020/12/03 09:30:09;;;;;;;4.57;2.22;;;7.00;97.00;;;;;;5069988;28;20075;-80
2020/12/03 09:32:39;;;;;;;9.70;6.05;;;7.00;97.00;;;;;;5068771;28;20072;-82
2020/12/03 09:35:05;;;;;;;3.85;2.40;;;7.10;96.80;;;;;;5068062;28;20051;-82
2020/12/03 09:37:32;;;;;;;3.78;2.22;;;7.10;96.70;;;;;;5068729;28;20151;-82
2020/12/03 09:39:59;;;;;;;3.75;2.00;;;7.00;96.60;;;;;;5068974;28;20470;-81
2020/12/03 09:42:26;;;;;;;4.55;2.10;;;6.90;96.60;;;;;;5050620;28;20097;-80
2020/12/03 09:44:57;;;;;;;4.15;1.88;;;6.80;96.60;;;;;;5066856;28;20027;-80
2020/12/03 09:47:29;;;;;;;2.50;1.40;;;6.80;96.70;;;;;;5065973;28;20057;-81
2020/12/03 09:49:55;;;;;;;1.90;1.10;;;6.70;96.70;;;;;;5067289;28;20052;-82
2020/12/03 09:52:22;;;;;;;3.53;1.38;;;6.70;96.60;;;;;;5069106;28;20538;-81
2020/12/03 09:54:48;;;;;;;2.83;1.58;;;6.60;96.60;;;;;;5068137;28;20043;-80
2020/12/03 09:57:14;;;;;;;2.15;1.30;;;6.60;96.70;;;;;;5067905;28;20021;-80
2020/12/03 09:59:40;;;;;;;2.42;1.38;;;6.70;96.70;;;;;;5051763;28;20028;-80
2020/12/03 10:02:24;;;;;;;5.47;3.13;;;6.60;96.70;;;;;;5067956;28;20760;-81
2020/12/03 10:05:20;;;;;;;3.25;1.90;;;6.60;96.70;;;;;;5065939;28;20493;-81
2020/12/03 10:08:26;;;;;;;3.35;2.10;;;6.70;96.70;;;;;;5066825;28;20097;-80
2020/12/03 10:11:06;;;;;;;4.57;1.98;;;6.70;96.60;;;;;;5069739;28;20112;-80
2020/12/03 10:13:51;;;;;;;3.83;2.22;;;6.70;96.60;;;;;;5070004;28;20021;-81
2020/12/03 10:16:22;;;;;;;4.65;2.65;;;6.70;96.70;;;;;;5069450;28;20647;-79
2020/12/03 10:18:54;;;;;;;3.60;2.30;;;6.70;96.80;;;;;;5048733;28;20056;-81
2020/12/03 10:21:25;;;;;;;5.32;2.65;;;6.80;96.70;;;;;;5052736;28;20373;-80
2020/12/03 10:23:56;;;;;;;8.85;3.72;;;6.80;96.70;;;;;;5070020;28;20128;-78
2020/12/03 10:26:28;;;;;;;7.82;4.28;;;6.90;96.80;;;;;;5070048;28;20158;-79
2020/12/03 10:29:15;;;;;;;12.82;5.45;;;6.90;96.70;;;;;;5074468;28;20063;-79
2020/12/03 10:31:43;;;;;;;9.02;5.10;;;6.90;96.70;;;;;;5080263;28;20046;-78
2020/12/03 10:34:14;;;;;;;10.32;4.93;;;7.00;96.60;;;;;;5068743;28;20512;-79
2020/12/03 10:36:52;;;;;;;9.65;4.53;;;7.00;96.50;;;;;;5066648;28;20032;-79
2020/12/03 10:39:19;;;;;;;10.85;5.22;;;7.00;96.40;;;;;;5076326;28;20067;-80
2020/12/03 10:41:54;;;;;;;8.95;4.22;;;7.10;96.40;;;;;;5063727;28;20480;-79
2020/12/03 10:44:25;;;;;;;7.70;4.40;;;7.10;96.40;;;;;;5079831;28;20036;-77
2020/12/03 10:47:01;;;;;;;8.10;4.80;;;7.20;96.30;;;;;;5069020;28;20112;-79
2020/12/03 10:49:28;;;;;;;7.03;4.40;;;7.20;96.20;;;;;;5069152;28;20021;-79
2020/12/03 10:52:03;;;;;;;8.18;4.18;;;7.20;96.10;;;;;;5069653;28;20382;-79
2020/12/03 10:54:32;;;;;;;7.35;4.55;;;7.20;96.10;;;;;;5067871;28;20137;-80
2020/12/03 10:57:16;;;;;;;6.22;4.25;;;7.20;96.10;;;;;;5069951;28;20103;-79
2020/12/03 10:59:41;;;;;;;8.93;5.05;;;7.20;96.10;;;;;;5068922;28;20075;-79
2020/12/03 11:02:25;;;;;;;9.13;4.70;;;7.20;96.20;;;;;;5069801;28;20053;-80
2020/12/03 11:04:52;;;;;;;3.88;2.40;;;7.30;96.30;;;;;;5068466;28;20064;-79
2020/12/03 11:07:18;;;;;;;5.40;3.55;;;7.30;96.20;;;;;;5086738;28;20367;-78
2020/12/03 11:09:50;;;;;;;4.68;3.05;;;7.30;96.00;;;;;;5053804;28;20024;-79
2020/12/03 11:12:16;;;;;;;4.53;3.00;;;7.30;96.00;;;;;;5070522;28;20360;-78
2020/12/03 11:14:42;;;;;;;4.20;2.28;;;7.30;96.10;;;;;;5069742;28;20118;-78
2020/12/03 11:17:34;;;;;;;3.40;2.38;;;7.30;96.10;;;;;;5068434;28;20458;-78
2020/12/03 11:20:03;;;;;;;3.42;2.42;;;7.40;96.40;;;;;;5070077;28;20042;-79
2020/12/03 11:22:40;;;;;;;4.40;2.00;;;7.40;96.10;;;;;;5065559;28;20036;-78
2020/12/03 11:25:12;;;;;;;3.08;1.95;;;7.40;96.00;;;;;;5069580;28;20016;-79
2020/12/03 11:27:42;;;;;;;4.43;2.55;;;7.40;96.10;;;;;;5068886;28;20097;-80
2020/12/03 11:30:15;;;;;;;3.40;2.40;;;7.30;96.00;;;;;;5068737;28;20028;-80
2020/12/03 11:32:55;;;;;;;6.78;3.15;;;7.30;96.00;;;;;;5068844;28;20016;-79
2020/12/03 11:35:24;;;;;;;8.25;4.45;;;7.30;96.00;;;;;;5068971;28;20119;-78
2020/12/03 11:37:54;;;;;;;8.65;4.10;;;7.30;95.90;;;;;;5068925;28;20379;-80
2020/12/03 11:40:39;;;;;;;5.43;3.60;;;7.30;95.90;;;;;;5052899;28;20060;-79
2020/12/03 11:46:30;;;;;;;9.77;5.57;;;7.30;95.90;;;;;;5039068;28;20564;-79
2020/12/03 11:48:58;;;;;;;10.85;5.10;;;7.30;96.00;;;;;;5031993;28;20463;-77
2020/12/03 11:51:35;;;;;;;9.05;4.88;;;7.40;96.00;;;;;;5033028;28;20045;-78
2020/12/03 11:54:06;;;;;;;7.05;3.85;;;7.40;95.90;;;;;;5049552;28;20025;-79
2020/12/03 11:56:34;;;;;;;6.13;3.83;;;7.50;95.90;;;;;;5016252;28;20052;-80
2020/12/03 11:59:17;;;;;;;6.22;4.10;;;7.70;96.00;;;;;;5033365;28;20100;-79
2020/12/03 12:01:54;;;;;;;7.72;3.85;;;7.80;95.80;;;;;;5059851;28;20063;-78
2020/12/03 12:04:26;;;;;;;9.55;4.57;;;7.90;95.70;;;;;;5070681;28;20040;-78
2020/12/03 12:12:01;;;;;;;6.13;3.45;;;8.40;95.50;;;;;;5068237;28;20025;-79
2020/12/03 12:14:27;;;;;;;8.52;4.38;;;8.50;95.30;;;;;;5051558;28;20029;-79
2020/12/03 12:16:53;;;;;;;7.00;3.40;;;8.70;95.50;;;;;;5047268;28;20145;-81
2020/12/03 12:19:19;;;;;;;6.93;2.95;;;8.90;95.40;;;;;;5049056;28;20029;-78
2020/12/03 12:21:46;;;;;;;4.88;2.25;;;9.00;95.00;;;;;;5049903;28;20028;-78
2020/12/03 12:24:11;;;;;;;4.15;2.20;;;9.10;94.70;;;;;;5071535;28;20028;-77
2020/12/03 12:26:37;;;;;;;5.20;2.00;;;9.10;94.40;;;;;;5067947;28;20073;-78
2020/12/03 12:29:03;;;;;;;4.28;2.40;;;9.10;94.50;;;;;;5050898;28;20039;-77
2020/12/03 12:31:28;;;;;;;4.75;2.63;;;9.10;94.40;;;;;;5071272;28;20043;-78
2020/12/03 12:33:54;;;;;;;3.70;1.73;;;9.20;94.70;;;;;;5071432;28;20054;-79
2020/12/03 12:36:20;;;;;;;5.95;2.70;;;9.40;94.80;;;;;;5070758;28;20025;-78
2020/12/03 12:38:45;;;;;;;3.08;1.70;;;9.60;94.60;;;;;;5080149;28;20029;-77
2020/12/03 12:41:11;;;;;;;3.17;1.83;;;9.70;94.20;;;;;;5070696;28;20099;-77
2020/12/03 12:43:37;;;;;;;4.72;2.67;;;9.60;93.80;;;;;;5072379;28;20033;-79
2020/12/03 12:46:02;;;;;;;7.93;3.38;;;9.50;93.50;;;;;;5073744;28;20537;-78
2020/12/03 12:48:28;;;;;;;7.53;3.08;;;9.40;93.50;;;;;;5054710;28;20051;-79
2020/12/03 12:50:54;;;;;;;6.63;2.60;;;9.30;93.50;;;;;;5072533;28;20025;-79
2020/12/03 12:53:19;;;;;;;3.22;1.65;;;9.20;93.50;;;;;;5054603;28;20033;-79
2020/12/03 12:55:45;;;;;;;7.13;2.10;;;9.20;93.50;;;;;;5037527;28;20039;-78
2020/12/03 12:58:11;;;;;;;9.70;2.97;;;9.20;93.50;;;;;;5053925;28;20036;-79
2020/12/03 13:00:36;;;;;;;5.70;1.88;;;9.10;93.60;;;;;;5070593;28;20028;-80
2020/12/03 13:03:03;;;;;;;6.13;2.38;;;9.10;93.60;;;;;;5071476;28;20112;-83
2020/12/03 13:05:28;;;;;;;5.13;2.13;;;9.10;93.50;;;;;;5071070;28;20033;-81
2020/12/03 13:07:54;;;;;;;6.65;2.67;;;9.00;93.60;;;;;;5037245;28;20032;-79
2020/12/03 13:10:20;;;;;;;4.57;2.53;;;9.10;93.80;;;;;;5070534;28;20028;-79
2020/12/03 13:12:47;;;;;;;7.35;2.88;;;9.10;93.80;;;;;;5071362;28;20425;-79
2020/12/03 13:15:13;;;;;;;5.32;2.33;;;9.10;93.90;;;;;;5072031;28;20112;-80
2020/12/03 13:17:39;;;;;;;9.48;2.17;;;9.20;93.80;;;;;;5070566;28;20109;-81
2020/12/03 13:20:04;;;;;;;4.75;2.20;;;9.10;93.50;;;;;;5071486;28;20087;-78
2020/12/03 13:22:31;;;;;;;6.07;1.92;;;8.90;93.30;;;;;;5070500;28;20032;-82
2020/12/03 13:24:57;;;;;;;31.80;15.82;;;8.80;93.20;;;;;;5071102;28;20035;-82
2020/12/03 13:27:23;;;;;;;8.75;4.07;;;8.50;93.20;;;;;;5069670;28;20495;-76
2020/12/03 13:29:51;;;;;;;14.00;8.38;;;8.40;93.30;;;;;;5070438;28;20028;-80
2020/12/03 13:32:16;;;;;;;10.20;4.00;;;8.20;93.40;;;;;;5085326;28;20024;-78